Time;durP1;ratioP1;P1;durP2;ratioP2;P2;SDS_P1;SDS_P2;PMS_P1;PMS_P2;Temp;Humidity;BMP_temperature;BMP_pressure;BME280_temperature;BME280_humidity;BME280_pressure;Samples;Min_cycle;Max_cycle;Signal;HPM_P1;HPM_P2
2022/10/13 00:01:34;;;;;;;28.35;10.55;;;;;;;;;;5004053;28;20034;-90
2022/10/13 00:04:00;;;;;;;25.20;9.75;;;;;;;;;;5017558;28;20053;-91
2022/10/13 00:06:26;;;;;;;25.85;10.50;;;;;;;;;;4984536;28;20111;-90
2022/10/13 00:08:53;;;;;;;30.15;11.15;;;;;;;;;;5023993;28;20080;-90
2022/10/13 00:11:20;;;;;;;26.80;10.02;;;;;;;;;;5004318;28;20030;-91
2022/10/13 00:13:47;;;;;;;33.33;10.82;;;;;;;;;;4999723;28;20487;-90
2022/10/13 00:16:14;;;;;;;23.83;10.10;;;;;;;;;;5007846;28;20041;-90
2022/10/13 00:18:40;;;;;;;23.20;10.43;;;;;;;;;;5008004;28;20786;-91
2022/10/13 00:21:07;;;;;;;25.70;10.93;;;;;;;;;;5003936;28;20034;-90
2022/10/13 00:23:34;;;;;;;26.30;11.10;;;;;;;;;;5008789;28;20076;-90
2022/10/13 00:26:02;;;;;;;30.80;10.68;;;;;;;;;;5005940;28;20098;-90
2022/10/13 00:28:28;;;;;;;25.00;10.13;;;;;;;;;;5007204;28;20069;-91
2022/10/13 00:30:54;;;;;;;27.30;10.45;;;;;;;;;;4987881;28;20469;-90
2022/10/13 00:33:20;;;;;;;32.40;11.82;;;;;;;;;;4988000;28;20121;-90
2022/10/13 00:35:47;;;;;;;22.00;10.20;;;;;;;;;;5003747;28;20023;-90
2022/10/13 00:38:13;;;;;;;31.15;11.10;;;;;;;;;;5002884;28;20694;-90
2022/10/13 00:40:46;;;;;;;31.55;11.65;;;;;;;;;;5020035;28;20473;-90
2022/10/13 00:43:17;;;;;;;30.90;11.35;;;;;;;;;;5018050;28;20031;-90
2022/10/13 00:45:44;;;;;;;29.65;12.13;;;;;;;;;;5001599;28;20044;-90
2022/10/13 00:48:11;;;;;;;25.73;10.40;;;;;;;;;;4999203;28;20040;-90
2022/10/13 00:50:52;;;;;;;30.08;9.88;;;;;;;;;;4999856;28;20100;-89
2022/10/13 00:53:27;;;;;;;25.95;10.50;;;;;;;;;;4977942;28;20076;-90
2022/10/13 00:55:54;;;;;;;26.27;11.15;;;;;;;;;;4987922;28;20118;-90
2022/10/13 00:58:21;;;;;;;37.55;12.68;;;;;;;;;;4990605;28;20025;-90
2022/10/13 01:00:49;;;;;;;25.25;10.68;;;;;;;;;;4988401;28;21270;-91
2022/10/13 01:03:15;;;;;;;32.38;12.65;;;;;;;;;;4987119;28;20498;-91
2022/10/13 01:05:41;;;;;;;24.52;11.48;;;;;;;;;;4989498;28;20053;-90
2022/10/13 01:08:08;;;;;;;33.40;12.07;;;;;;;;;;4989251;28;20042;-90
2022/10/13 01:10:51;;;;;;;25.20;10.95;;;;;;;;;;4999962;28;20057;-90
2022/10/13 01:13:34;;;;;;;35.83;11.77;;;;;;;;;;4985836;28;20029;-91
2022/10/13 01:16:05;;;;;;;26.98;11.05;;;;;;;;;;5001274;28;20026;-90
2022/10/13 01:18:31;;;;;;;27.02;11.57;;;;;;;;;;5002608;28;20944;-90
2022/10/13 01:21:00;;;;;;;31.10;11.35;;;;;;;;;;4985676;28;20037;-90
2022/10/13 01:23:44;;;;;;;24.92;10.55;;;;;;;;;;4995116;28;20041;-90
2022/10/13 01:26:33;;;;;;;27.67;12.18;;;;;;;;;;4986775;28;20487;-90
2022/10/13 01:29:18;;;;;;;31.05;12.55;;;;;;;;;;4988300;28;20041;-91
2022/10/13 01:31:47;;;;;;;37.13;12.57;;;;;;;;;;4989111;28;20026;-91
2022/10/13 01:34:28;;;;;;;28.75;11.52;;;;;;;;;;4983136;28;20060;-90
2022/10/13 01:36:54;;;;;;;23.83;11.40;;;;;;;;;;4981646;28;20034;-90
2022/10/13 01:39:27;;;;;;;29.50;11.75;;;;;;;;;;4988680;28;20372;-90
2022/10/13 01:41:56;;;;;;;30.58;11.80;;;;;;;;;;4997617;28;21171;-91
2022/10/13 01:44:25;;;;;;;32.88;12.82;;;;;;;;;;4987949;28;20444;-90
2022/10/13 01:46:52;;;;;;;31.45;12.25;;;;;;;;;;4991839;28;20106;-90
2022/10/13 01:49:20;;;;;;;27.95;11.85;;;;;;;;;;5001223;28;20056;-89
2022/10/13 01:51:46;;;;;;;32.33;12.23;;;;;;;;;;4993775;28;20068;-90
2022/10/13 01:54:12;;;;;;;33.38;11.93;;;;;;;;;;4995467;28;20372;-90
2022/10/13 01:56:38;;;;;;;26.17;12.23;;;;;;;;;;5008390;28;20041;-90
2022/10/13 01:59:08;;;;;;;33.00;12.35;;;;;;;;;;4997547;28;20374;-90
2022/10/13 02:01:43;;;;;;;28.65;12.07;;;;;;;;;;5026479;28;20060;-90
2022/10/13 02:04:12;;;;;;;33.93;13.10;;;;;;;;;;5028319;28;20030;-90
2022/10/13 02:06:46;;;;;;;29.38;12.05;;;;;;;;;;5008304;28;20025;-91
2022/10/13 02:09:18;;;;;;;31.30;13.18;;;;;;;;;;5026438;28;20482;-91
2022/10/13 02:11:47;;;;;;;35.85;12.45;;;;;;;;;;5008241;28;20116;-91
2022/10/13 02:14:20;;;;;;;34.47;13.38;;;;;;;;;;5028866;28;20570;-91
2022/10/13 02:16:48;;;;;;;30.75;12.80;;;;;;;;;;5027534;28;20053;-91
2022/10/13 02:19:16;;;;;;;36.88;14.00;;;;;;;;;;5023605;28;20060;-90
2022/10/13 02:21:43;;;;;;;32.13;12.73;;;;;;;;;;5006887;28;20053;-90
2022/10/13 02:24:09;;;;;;;39.63;14.90;;;;;;;;;;4994102;28;20553;-90
2022/10/13 02:26:35;;;;;;;39.10;14.27;;;;;;;;;;5024636;28;20826;-90
2022/10/13 02:29:28;;;;;;;41.17;13.40;;;;;;;;;;5013886;28;20041;-91
2022/10/13 02:31:54;;;;;;;41.28;13.75;;;;;;;;;;5009995;28;20285;-88
2022/10/13 02:34:20;;;;;;;33.53;13.48;;;;;;;;;;5008633;28;20021;-89
2022/10/13 02:36:46;;;;;;;30.35;13.25;;;;;;;;;;4997001;28;20129;-89
2022/10/13 02:39:12;;;;;;;27.42;13.43;;;;;;;;;;4992851;28;20030;-89
2022/10/13 02:41:38;;;;;;;31.88;13.95;;;;;;;;;;5028129;28;20204;-90
2022/10/13 02:44:05;;;;;;;42.25;14.48;;;;;;;;;;5008298;28;20585;-89
2022/10/13 02:46:31;;;;;;;34.33;14.45;;;;;;;;;;5022532;28;20437;-89
2022/10/13 02:48:57;;;;;;;37.72;15.50;;;;;;;;;;5024536;28;20721;-90
2022/10/13 02:51:23;;;;;;;40.53;14.70;;;;;;;;;;5011600;28;20048;-88
2022/10/13 02:53:49;;;;;;;31.52;15.00;;;;;;;;;;5010849;28;20695;-89
2022/10/13 02:56:15;;;;;;;32.95;14.57;;;;;;;;;;5014012;28;20125;-89
2022/10/13 02:58:41;;;;;;;38.35;14.07;;;;;;;;;;5023992;28;20041;-90
2022/10/13 03:01:08;;;;;;;34.28;14.07;;;;;;;;;;4994217;28;20037;-89
2022/10/13 03:03:35;;;;;;;29.55;13.70;;;;;;;;;;5026370;28;20507;-89
2022/10/13 03:06:01;;;;;;;35.70;12.70;;;;;;;;;;5011224;28;20037;-89
2022/10/13 03:08:27;;;;;;;28.25;14.02;;;;;;;;;;5020408;28;20489;-89
2022/10/13 03:10:53;;;;;;;30.40;13.07;;;;;;;;;;5008635;28;20478;-89
2022/10/13 03:13:20;;;;;;;28.73;13.50;;;;;;;;;;5022865;28;20041;-89
2022/10/13 03:15:46;;;;;;;38.22;13.60;;;;;;;;;;5005893;28;20393;-91
2022/10/13 03:18:12;;;;;;;36.53;14.05;;;;;;;;;;5022171;28;20033;-91
2022/10/13 03:20:39;;;;;;;41.10;14.35;;;;;;;;;;5009117;28;20739;-91
2022/10/13 03:23:05;;;;;;;35.78;13.77;;;;;;;;;;4995503;28;20116;-91
2022/10/13 03:25:32;;;;;;;27.77;12.13;;;;;;;;;;5024668;28;20565;-91
2022/10/13 03:27:58;;;;;;;33.00;13.10;;;;;;;;;;4994419;28;20095;-91
2022/10/13 03:30:25;;;;;;;35.53;14.48;;;;;;;;;;4995888;28;20139;-90
2022/10/13 03:32:51;;;;;;;34.53;14.15;;;;;;;;;;5024341;28;20018;-90
2022/10/13 03:35:17;;;;;;;30.88;13.63;;;;;;;;;;5027135;28;20025;-90
2022/10/13 03:37:43;;;;;;;35.08;13.10;;;;;;;;;;5007253;28;20417;-91
2022/10/13 03:40:09;;;;;;;35.15;14.02;;;;;;;;;;5023934;28;20040;-91
2022/10/13 03:42:36;;;;;;;34.47;12.57;;;;;;;;;;5004856;28;20084;-91
2022/10/13 03:45:05;;;;;;;31.40;13.23;;;;;;;;;;5011692;28;20037;-91
2022/10/13 03:47:31;;;;;;;32.28;14.68;;;;;;;;;;5023566;28;20025;-90
2022/10/13 03:49:57;;;;;;;29.20;13.50;;;;;;;;;;5024939;28;20480;-90
2022/10/13 03:52:23;;;;;;;35.53;14.02;;;;;;;;;;5004772;28;20061;-90
2022/10/13 03:54:49;;;;;;;34.90;15.15;;;;;;;;;;5021633;28;20087;-90
2022/10/13 03:57:15;;;;;;;30.33;14.07;;;;;;;;;;5006353;28;20034;-88
2022/10/13 03:59:41;;;;;;;34.08;15.50;;;;;;;;;;5005797;28;20037;-88
2022/10/13 04:02:07;;;;;;;31.20;13.30;;;;;;;;;;4990044;28;20798;-89
2022/10/13 04:04:34;;;;;;;35.95;14.77;;;;;;;;;;5010727;28;20037;-89
2022/10/13 04:07:00;;;;;;;36.05;15.80;;;;;;;;;;5002828;28;20033;-89
2022/10/13 04:09:27;;;;;;;36.67;14.05;;;;;;;;;;5026113;28;20036;-89
2022/10/13 04:11:53;;;;;;;39.92;12.43;;;;;;;;;;5006965;28;20080;-89
2022/10/13 04:14:19;;;;;;;42.05;16.10;;;;;;;;;;5008656;28;20349;-88
2022/10/13 04:16:45;;;;;;;41.38;15.73;;;;;;;;;;5007996;28;20040;-87
2022/10/13 04:19:12;;;;;;;44.78;16.63;;;;;;;;;;4988060;28;20076;-88
2022/10/13 04:21:39;;;;;;;34.72;15.23;;;;;;;;;;5007923;28;20052;-89
2022/10/13 04:24:05;;;;;;;39.42;15.18;;;;;;;;;;5004376;28;20038;-88
2022/10/13 04:26:33;;;;;;;51.22;17.42;;;;;;;;;;5002287;28;20056;-88
2022/10/13 04:29:00;;;;;;;38.13;15.85;;;;;;;;;;5023967;28;20045;-88
2022/10/13 04:31:27;;;;;;;37.00;14.80;;;;;;;;;;5005714;28;20600;-88
2022/10/13 04:33:53;;;;;;;41.85;16.88;;;;;;;;;;5007686;28;20037;-88
2022/10/13 04:36:19;;;;;;;38.78;16.45;;;;;;;;;;4992152;28;20033;-88
2022/10/13 04:38:45;;;;;;;44.25;16.92;;;;;;;;;;5021186;28;20043;-88
2022/10/13 04:41:12;;;;;;;41.83;16.35;;;;;;;;;;4991240;28;20366;-88
2022/10/13 04:43:38;;;;;;;37.17;15.88;;;;;;;;;;5008508;28;20033;-87
2022/10/13 04:46:06;;;;;;;41.22;16.85;;;;;;;;;;4990158;28;20033;-88
2022/10/13 04:48:32;;;;;;;51.05;15.63;;;;;;;;;;5007536;28;20044;-88
2022/10/13 04:51:02;;;;;;;37.55;17.67;;;;;;;;;;5010873;28;20087;-88
2022/10/13 04:53:29;;;;;;;40.97;17.90;;;;;;;;;;5002653;28;20589;-87
2022/10/13 04:55:55;;;;;;;40.65;17.35;;;;;;;;;;5006278;28;20029;-88
2022/10/13 04:58:28;;;;;;;47.35;17.08;;;;;;;;;;5002401;28;20088;-87
2022/10/13 05:00:54;;;;;;;45.22;16.58;;;;;;;;;;4984663;28;20501;-88
2022/10/13 05:03:20;;;;;;;45.80;19.50;;;;;;;;;;4990410;28;20507;-87
2022/10/13 05:05:46;;;;;;;45.53;17.52;;;;;;;;;;4999651;28;20034;-88
2022/10/13 05:08:12;;;;;;;46.15;17.98;;;;;;;;;;5005178;28;20104;-87
2022/10/13 05:10:38;;;;;;;41.67;18.52;;;;;;;;;;5000477;28;20026;-88
2022/10/13 05:13:04;;;;;;;43.22;18.23;;;;;;;;;;5001472;28;20124;-88
2022/10/13 05:15:30;;;;;;;40.13;18.73;;;;;;;;;;5004211;28;20042;-88
2022/10/13 05:17:58;;;;;;;47.78;19.48;;;;;;;;;;5000819;28;20041;-88
2022/10/13 05:20:24;;;;;;;39.78;17.45;;;;;;;;;;5006937;28;20041;-88
2022/10/13 05:22:50;;;;;;;51.75;19.70;;;;;;;;;;4991321;28;20473;-87
2022/10/13 05:25:16;;;;;;;47.95;17.75;;;;;;;;;;4991048;28;20045;-87
2022/10/13 05:27:44;;;;;;;42.25;17.23;;;;;;;;;;5007688;28;20053;-88
2022/10/13 05:30:10;;;;;;;46.55;18.98;;;;;;;;;;4993116;28;20053;-87
2022/10/13 05:32:36;;;;;;;42.97;19.25;;;;;;;;;;4989838;28;20029;-86
2022/10/13 05:35:02;;;;;;;60.33;19.60;;;;;;;;;;5015819;28;20168;-86
2022/10/13 05:37:28;;;;;;;43.40;18.50;;;;;;;;;;5004204;28;20096;-86
2022/10/13 05:39:55;;;;;;;45.03;20.55;;;;;;;;;;4988753;28;20038;-86
2022/10/13 05:42:21;;;;;;;54.72;19.77;;;;;;;;;;4987143;28;20036;-86
2022/10/13 05:44:47;;;;;;;40.30;16.92;;;;;;;;;;4987098;28;20040;-86
2022/10/13 05:47:13;;;;;;;46.80;20.45;;;;;;;;;;5003024;28;20034;-88
2022/10/13 05:49:39;;;;;;;47.33;20.42;;;;;;;;;;5018282;28;20466;-86
2022/10/13 05:52:07;;;;;;;57.63;21.88;;;;;;;;;;4987417;28;20049;-86
2022/10/13 05:54:39;;;;;;;60.10;21.80;;;;;;;;;;5003681;28;20050;-87
2022/10/13 05:57:08;;;;;;;46.33;20.48;;;;;;;;;;5003797;28;20030;-86
2022/10/13 05:59:36;;;;;;;46.20;21.50;;;;;;;;;;5001819;28;20025;-86
2022/10/13 06:02:03;;;;;;;55.58;21.27;;;;;;;;;;5001199;28;20587;-86
2022/10/13 06:04:31;;;;;;;50.25;21.08;;;;;;;;;;4971232;28;20040;-86
2022/10/13 06:06:57;;;;;;;56.42;21.23;;;;;;;;;;5001287;28;20501;-86
2022/10/13 06:09:23;;;;;;;60.30;22.65;;;;;;;;;;4987279;28;20048;-86
2022/10/13 06:11:49;;;;;;;47.63;21.98;;;;;;;;;;4974292;28;20036;-87
2022/10/13 06:14:15;;;;;;;54.33;22.00;;;;;;;;;;5018015;28;20388;-86
2022/10/13 06:16:48;;;;;;;53.72;21.92;;;;;;;;;;5000892;28;20037;-86
2022/10/13 06:19:14;;;;;;;57.20;22.48;;;;;;;;;;4995008;28;20154;-87
2022/10/13 06:21:40;;;;;;;53.70;22.10;;;;;;;;;;5003251;28;20061;-86
2022/10/13 06:24:06;;;;;;;50.85;20.98;;;;;;;;;;5002097;28;20505;-86
2022/10/13 06:26:32;;;;;;;63.58;24.52;;;;;;;;;;4999528;28;20512;-86
2022/10/13 06:28:58;;;;;;;61.88;23.48;;;;;;;;;;4998896;28;20041;-86
2022/10/13 06:31:24;;;;;;;64.57;23.17;;;;;;;;;;5000763;28;20093;-86
2022/10/13 06:33:51;;;;;;;50.15;19.30;;;;;;;;;;4988601;28;20026;-86
2022/10/13 06:36:17;;;;;;;54.50;21.23;;;;;;;;;;5001457;28;20150;-86
2022/10/13 06:38:43;;;;;;;37.20;17.85;;;;;;;;;;5003254;28;20081;-86
2022/10/13 06:41:09;;;;;;;56.30;23.50;;;;;;;;;;4996894;28;20086;-87
2022/10/13 06:43:36;;;;;;;46.03;18.35;;;;;;;;;;5006636;28;20069;-86
2022/10/13 06:46:02;;;;;;;57.72;22.98;;;;;;;;;;5007232;28;20038;-87
2022/10/13 06:48:28;;;;;;;59.10;22.67;;;;;;;;;;5006401;28;20076;-87
2022/10/13 06:50:54;;;;;;;57.47;24.08;;;;;;;;;;4990728;28;20117;-87
2022/10/13 06:53:20;;;;;;;58.90;24.48;;;;;;;;;;5000298;28;20193;-87
2022/10/13 06:55:46;;;;;;;73.07;25.52;;;;;;;;;;5001707;28;20038;-87
2022/10/13 06:58:12;;;;;;;64.68;24.65;;;;;;;;;;4999566;28;20117;-87
2022/10/13 07:00:40;;;;;;;58.35;23.65;;;;;;;;;;5001511;28;20066;-87
2022/10/13 07:03:06;;;;;;;63.92;24.73;;;;;;;;;;5000275;28;20366;-87
2022/10/13 07:05:32;;;;;;;53.22;21.38;;;;;;;;;;5016027;28;20481;-87
2022/10/13 07:07:58;;;;;;;42.65;20.10;;;;;;;;;;4985537;28;20056;-87
2022/10/13 07:10:24;;;;;;;56.35;23.08;;;;;;;;;;5004820;28;20070;-87
2022/10/13 07:12:50;;;;;;;55.53;22.35;;;;;;;;;;4993732;28;20065;-87
2022/10/13 07:15:16;;;;;;;53.55;22.67;;;;;;;;;;5017849;28;20034;-87
2022/10/13 07:17:42;;;;;;;43.95;18.02;;;;;;;;;;5021050;28;20033;-86
2022/10/13 07:20:08;;;;;;;59.83;23.30;;;;;;;;;;5010484;28;20040;-87
2022/10/13 07:22:34;;;;;;;46.88;21.63;;;;;;;;;;4988587;28;20030;-87
2022/10/13 07:25:00;;;;;;;58.05;22.98;;;;;;;;;;4987883;28;20069;-87
2022/10/13 07:27:27;;;;;;;47.50;21.23;;;;;;;;;;4986689;28;20038;-87
2022/10/13 07:29:53;;;;;;;48.80;19.83;;;;;;;;;;5015171;28;20038;-87
2022/10/13 07:32:19;;;;;;;56.25;21.90;;;;;;;;;;4989062;28;20037;-87
2022/10/13 07:34:45;;;;;;;44.05;20.30;;;;;;;;;;4999521;28;20030;-87
2022/10/13 07:37:11;;;;;;;50.13;20.83;;;;;;;;;;5000024;28;20405;-87
2022/10/13 07:39:37;;;;;;;44.92;19.13;;;;;;;;;;4999207;28;20474;-88
2022/10/13 07:42:03;;;;;;;38.80;16.23;;;;;;;;;;5000297;28;20041;-87
2022/10/13 07:44:29;;;;;;;52.53;19.35;;;;;;;;;;4999753;28;20029;-87
2022/10/13 07:46:55;;;;;;;41.75;19.42;;;;;;;;;;4989052;28;20388;-87
2022/10/13 07:49:21;;;;;;;39.88;17.17;;;;;;;;;;4998116;28;20105;-87
2022/10/13 07:51:47;;;;;;;49.95;20.50;;;;;;;;;;4986639;28;20040;-87
2022/10/13 07:54:14;;;;;;;37.03;17.50;;;;;;;;;;4989286;28;20041;-87
2022/10/13 07:56:40;;;;;;;44.22;19.13;;;;;;;;;;5022267;28;20021;-87
2022/10/13 07:59:06;;;;;;;46.15;19.25;;;;;;;;;;5007501;28;20046;-87
2022/10/13 08:01:32;;;;;;;41.63;15.65;;;;;;;;;;5008225;28;20073;-87
2022/10/13 08:03:58;;;;;;;45.90;21.05;;;;;;;;;;5023818;28;20044;-87
2022/10/13 08:06:24;;;;;;;45.65;18.00;;;;;;;;;;5004793;28;20026;-87
2022/10/13 08:08:50;;;;;;;38.55;18.35;;;;;;;;;;5002345;28;20048;-87
2022/10/13 08:11:17;;;;;;;49.60;18.73;;;;;;;;;;4988559;28;20037;-87
2022/10/13 08:13:46;;;;;;;52.58;20.40;;;;;;;;;;5005355;28;20493;-87
2022/10/13 08:16:12;;;;;;;38.33;17.40;;;;;;;;;;5004252;28;20125;-87
2022/10/13 08:18:38;;;;;;;46.50;18.95;;;;;;;;;;5002709;28;20033;-87
2022/10/13 08:21:04;;;;;;;44.20;18.40;;;;;;;;;;5002989;28;20049;-87
2022/10/13 08:23:31;;;;;;;51.42;21.40;;;;;;;;;;5021242;28;20116;-87
2022/10/13 08:25:57;;;;;;;42.35;18.20;;;;;;;;;;5019547;28;20123;-87
2022/10/13 08:28:27;;;;;;;34.35;16.70;;;;;;;;;;4989346;28;20044;-88
2022/10/13 08:30:55;;;;;;;38.00;18.63;;;;;;;;;;4998222;28;20745;-87
2022/10/13 08:33:21;;;;;;;36.75;18.52;;;;;;;;;;5007333;28;20025;-87
2022/10/13 08:35:47;;;;;;;38.80;16.75;;;;;;;;;;5004011;28;20507;-87
2022/10/13 08:38:13;;;;;;;35.45;17.55;;;;;;;;;;4991491;28;20075;-87
2022/10/13 08:40:40;;;;;;;35.78;17.60;;;;;;;;;;4987837;28;20059;-88
2022/10/13 08:43:07;;;;;;;38.78;18.00;;;;;;;;;;5020838;28;20045;-87
2022/10/13 08:45:33;;;;;;;39.17;18.45;;;;;;;;;;5022699;28;20029;-87
2022/10/13 08:48:05;;;;;;;44.75;17.92;;;;;;;;;;4990362;28;20096;-87
2022/10/13 08:50:36;;;;;;;42.13;19.80;;;;;;;;;;5018892;28;20024;-87
2022/10/13 08:53:07;;;;;;;48.55;18.88;;;;;;;;;;5010123;28;20511;-87
2022/10/13 08:55:53;;;;;;;48.90;20.05;;;;;;;;;;4999753;28;20077;-87
2022/10/13 08:58:24;;;;;;;41.60;19.02;;;;;;;;;;4992582;28;20049;-87
2022/10/13 09:01:10;;;;;;;46.95;20.80;;;;;;;;;;5001147;28;20025;-87
2022/10/13 09:03:52;;;;;;;40.70;19.35;;;;;;;;;;4984550;28;20344;-87
2022/10/13 09:06:26;;;;;;;42.30;19.80;;;;;;;;;;4997649;28;20029;-87
2022/10/13 09:08:54;;;;;;;31.77;14.65;;;;;;;;;;4998972;28;20029;-87
2022/10/13 09:11:20;;;;;;;49.78;21.10;;;;;;;;;;4996506;28;20153;-87
2022/10/13 09:13:46;;;;;;;43.88;18.73;;;;;;;;;;4994449;28;20064;-87
2022/10/13 09:16:12;;;;;;;51.83;22.05;;;;;;;;;;4978985;28;20034;-88
2022/10/13 09:18:39;;;;;;;44.85;19.35;;;;;;;;;;4996801;28;20041;-88
2022/10/13 09:21:09;;;;;;;45.35;22.00;;;;;;;;;;5001450;28;20490;-88
2022/10/13 09:23:35;;;;;;;50.92;23.50;;;;;;;;;;4999412;28;20393;-88
2022/10/13 09:26:06;;;;;;;55.30;22.92;;;;;;;;;;4993943;28;20048;-87
2022/10/13 09:28:32;;;;;;;55.38;23.20;;;;;;;;;;4992234;28;20037;-88
2022/10/13 09:31:06;;;;;;;44.30;20.20;;;;;;;;;;4997805;28;20088;-88
2022/10/13 09:33:34;;;;;;;53.90;20.83;;;;;;;;;;5000020;28;20124;-88
2022/10/13 09:36:05;;;;;;;56.05;23.60;;;;;;;;;;4997439;28;20572;-88
2022/10/13 09:38:31;;;;;;;48.25;19.88;;;;;;;;;;5000936;28;20401;-88
2022/10/13 09:41:03;;;;;;;54.65;22.85;;;;;;;;;;4998092;28;20048;-88
2022/10/13 09:43:31;;;;;;;42.50;19.90;;;;;;;;;;5013633;28;20029;-88
2022/10/13 09:45:58;;;;;;;44.08;22.30;;;;;;;;;;4998653;28;20046;-88
2022/10/13 09:48:28;;;;;;;47.65;21.13;;;;;;;;;;4996371;28;20378;-88
2022/10/13 09:50:56;;;;;;;54.20;21.65;;;;;;;;;;4998948;28;20121;-87
2022/10/13 09:53:33;;;;;;;43.95;23.85;;;;;;;;;;4997574;28;20124;-88
2022/10/13 09:56:10;;;;;;;48.33;20.25;;;;;;;;;;4996860;28;20033;-88
2022/10/13 09:58:39;;;;;;;44.85;19.38;;;;;;;;;;4976504;28;20038;-88
2022/10/13 10:01:06;;;;;;;44.60;21.50;;;;;;;;;;4981058;28;20030;-87
2022/10/13 10:03:35;;;;;;;53.10;21.17;;;;;;;;;;4973454;28;20095;-90
2022/10/13 10:06:06;;;;;;;41.13;20.30;;;;;;;;;;4979303;28;20111;-90
2022/10/13 10:08:51;;;;;;;43.65;21.27;;;;;;;;;;4996042;28;20532;-89
2022/10/13 10:11:18;;;;;;;49.10;21.05;;;;;;;;;;4979831;28;20481;-90
2022/10/13 10:13:44;;;;;;;41.08;19.33;;;;;;;;;;4984894;28;20437;-90
2022/10/13 10:16:20;;;;;;;40.58;20.67;;;;;;;;;;4986211;28;20124;-90
2022/10/13 10:19:02;;;;;;;45.85;21.90;;;;;;;;;;4999615;28;20057;-90
2022/10/13 10:21:28;;;;;;;39.08;18.58;;;;;;;;;;4985675;28;20041;-91
2022/10/13 10:23:54;;;;;;;44.10;21.65;;;;;;;;;;4981794;28;20654;-90
2022/10/13 10:26:28;;;;;;;44.92;19.02;;;;;;;;;;4981447;28;20026;-91
2022/10/13 10:29:10;;;;;;;46.03;21.95;;;;;;;;;;4983779;28;20034;-90
2022/10/13 10:31:42;;;;;;;34.95;18.13;;;;;;;;;;5001877;28;20026;-91
2022/10/13 10:34:29;;;;;;;52.38;21.20;;;;;;;;;;4984383;28;20952;-91
2022/10/13 10:36:55;;;;;;;51.05;21.40;;;;;;;;;;4981910;28;20497;-89
2022/10/13 10:39:36;;;;;;;44.08;19.67;;;;;;;;;;4982930;28;21655;-90
2022/10/13 10:42:19;;;;;;;35.83;17.65;;;;;;;;;;4979202;28;20044;-90
2022/10/13 10:44:47;;;;;;;45.10;18.98;;;;;;;;;;5000387;28;20646;-90
2022/10/13 10:47:33;;;;;;;38.45;20.08;;;;;;;;;;5001134;28;20098;-90
2022/10/13 10:49:59;;;;;;;;;;;;;;;;;;4977462;28;20037;-90
2022/10/13 10:52:53;;;;;;;44.38;19.02;;;;;;;;;;5003105;28;20331;-90
2022/10/13 10:55:37;;;;;;;31.80;16.27;;;;;;;;;;5019590;28;20129;-91
2022/10/13 10:58:12;;;;;;;38.45;17.52;;;;;;;;;;5003405;28;20038;-91
2022/10/13 11:00:41;;;;;;;43.40;18.38;;;;;;;;;;5011047;28;20030;-91
2022/10/13 11:03:39;;;;;;;44.28;19.45;;;;;;;;;;5000610;28;20026;-91
2022/10/13 11:06:17;;;;;;;40.58;18.90;;;;;;;;;;4955175;28;20056;-91
2022/10/13 11:08:45;;;;;;;37.90;17.85;;;;;;;;;;5014510;28;20132;-91
2022/10/13 11:11:24;;;;;;;34.95;18.83;;;;;;;;;;4997155;28;20497;-91
2022/10/13 11:14:13;;;;;;;37.08;16.95;;;;;;;;;;5014779;28;20030;-91
2022/10/13 11:16:40;;;;;;;35.38;18.95;;;;;;;;;;5009223;28;20357;-91
2022/10/13 11:19:25;;;;;;;39.63;17.42;;;;;;;;;;4993768;28;20477;-91
2022/10/13 11:21:55;;;;;;;40.75;19.25;;;;;;;;;;5015442;28;20097;-91
2022/10/13 11:24:33;;;;;;;42.20;18.65;;;;;;;;;;4999619;28;20034;-91
2022/10/13 11:27:09;;;;;;;34.80;16.67;;;;;;;;;;4997644;28;20802;-91
2022/10/13 11:29:45;;;;;;;44.80;16.92;;;;;;;;;;5002410;28;20117;-91
2022/10/13 11:32:11;;;;;;;;;;;;;;;;;;5000562;28;20065;-91
2022/10/13 11:34:37;;;;;;;31.05;16.48;;;;;;;;;;4997252;28;20052;-91
2022/10/13 11:37:11;;;;;;;40.25;18.17;;;;;;;;;;4998022;28;20026;-91
2022/10/13 11:39:48;;;;;;;36.80;17.30;;;;;;;;;;5016322;28;20026;-91
2022/10/13 11:42:14;;;;;;;35.17;17.45;;;;;;;;;;4998608;28;20022;-91
2022/10/13 11:44:54;;;;;;;33.65;16.75;;;;;;;;;;4997342;28;20069;-91
2022/10/13 11:47:39;;;;;;;33.50;17.75;;;;;;;;;;5002608;28;20033;-90
2022/10/13 11:50:20;;;;;;;33.13;16.90;;;;;;;;;;4998372;28;20096;-90
2022/10/13 11:52:52;;;;;;;35.35;16.80;;;;;;;;;;5002538;28;20091;-90
2022/10/13 11:55:22;;;;;;;37.78;17.60;;;;;;;;;;5024526;28;20029;-90
2022/10/13 11:57:48;;;;;;;32.75;16.70;;;;;;;;;;5016362;28;20033;-90
2022/10/13 12:00:19;;;;;;;29.80;15.95;;;;;;;;;;5021749;28;20395;-90
2022/10/13 12:02:49;;;;;;;28.42;14.98;;;;;;;;;;5004727;28;20068;-90
2022/10/13 12:05:26;;;;;;;37.30;16.30;;;;;;;;;;5020259;28;20068;-90
2022/10/13 12:07:55;;;;;;;37.85;16.83;;;;;;;;;;5001276;28;20041;-90
2022/10/13 12:10:24;;;;;;;29.20;15.80;;;;;;;;;;5006043;28;20029;-90
2022/10/13 12:12:50;;;;;;;31.98;16.77;;;;;;;;;;4999586;28;20253;-90
2022/10/13 12:15:34;;;;;;;44.38;17.60;;;;;;;;;;5022953;28;20022;-89
2022/10/13 12:18:00;;;;;;;26.30;15.65;;;;;;;;;;4999037;28;20029;-90
2022/10/13 12:20:32;;;;;;;29.60;16.63;;;;;;;;;;5003574;28;20038;-90
2022/10/13 12:22:58;;;;;;;30.83;15.80;;;;;;;;;;5004557;28;20038;-90
2022/10/13 12:25:25;;;;;;;30.52;16.13;;;;;;;;;;4988508;28;20123;-90
2022/10/13 12:27:53;;;;;;;30.80;16.55;;;;;;;;;;5018721;28;20040;-90
2022/10/13 12:30:27;;;;;;;31.55;15.40;;;;;;;;;;5020733;28;20033;-90
2022/10/13 12:32:54;;;;;;;34.30;16.05;;;;;;;;;;5015071;28;20045;-90
2022/10/13 12:35:20;;;;;;;34.00;16.15;;;;;;;;;;4988254;28;20114;-90
2022/10/13 12:37:47;;;;;;;31.83;16.10;;;;;;;;;;5000919;28;20267;-90
2022/10/13 12:40:13;;;;;;;32.25;16.10;;;;;;;;;;5005102;28;20561;-90
2022/10/13 12:42:40;;;;;;;32.75;15.50;;;;;;;;;;5016846;28;20489;-90
2022/10/13 12:45:07;;;;;;;33.22;16.10;;;;;;;;;;5004341;28;20025;-91
2022/10/13 12:47:37;;;;;;;28.08;15.93;;;;;;;;;;4986005;28;20518;-90
2022/10/13 12:50:21;;;;;;;27.63;15.40;;;;;;;;;;5019657;28;20084;-91
2022/10/13 12:52:48;;;;;;;26.15;14.38;;;;;;;;;;5001365;28;20071;-90
2022/10/13 12:55:16;;;;;;;28.02;15.68;;;;;;;;;;4998515;28;20029;-91
2022/10/13 12:57:44;;;;;;;25.38;13.68;;;;;;;;;;5020131;28;20029;-90
2022/10/13 13:00:16;;;;;;;28.58;15.98;;;;;;;;;;5015996;28;20026;-91
2022/10/13 13:02:49;;;;;;;32.20;16.00;;;;;;;;;;5021863;28;20488;-91
2022/10/13 13:05:35;;;;;;;34.03;16.00;;;;;;;;;;5020977;28;20029;-91
2022/10/13 13:08:02;;;;;;;31.40;15.93;;;;;;;;;;5023383;28;20439;-91
2022/10/13 13:10:28;;;;;;;26.45;15.02;;;;;;;;;;5001976;28;20161;-90
2022/10/13 13:12:55;;;;;;;29.92;15.05;;;;;;;;;;5005737;28;20513;-90
2022/10/13 13:15:24;;;;;;;28.52;15.80;;;;;;;;;;4988344;28;20080;-90
2022/10/13 13:17:51;;;;;;;29.85;15.80;;;;;;;;;;5002994;28;20041;-90
2022/10/13 13:20:22;;;;;;;30.92;15.73;;;;;;;;;;5003991;28;20448;-90
2022/10/13 13:22:49;;;;;;;32.13;15.85;;;;;;;;;;5004516;28;20033;-90
2022/10/13 13:25:15;;;;;;;23.83;14.93;;;;;;;;;;4989371;28;20583;-90
2022/10/13 13:27:41;;;;;;;26.63;15.57;;;;;;;;;;5001011;28;20038;-90
2022/10/13 13:30:16;;;;;;;32.08;15.73;;;;;;;;;;4998848;28;20033;-90
2022/10/13 13:32:42;;;;;;;24.92;15.02;;;;;;;;;;4999431;28;20032;-90
2022/10/13 13:35:08;;;;;;;28.45;15.55;;;;;;;;;;4984790;28;20037;-91
2022/10/13 13:37:40;;;;;;;27.83;15.07;;;;;;;;;;5003546;28;20037;-90
2022/10/13 13:40:06;;;;;;;28.27;15.50;;;;;;;;;;5007644;28;20511;-91
2022/10/13 13:42:32;;;;;;;28.75;16.20;;;;;;;;;;5019951;28;20497;-90
2022/10/13 13:44:58;;;;;;;28.35;16.65;;;;;;;;;;5003556;28;20037;-91
2022/10/13 13:47:26;;;;;;;37.53;15.38;;;;;;;;;;5001639;28;20034;-90
2022/10/13 13:49:53;;;;;;;28.63;16.27;;;;;;;;;;5025860;28;20087;-91
2022/10/13 13:52:20;;;;;;;30.23;16.52;;;;;;;;;;5023256;28;20030;-90
2022/10/13 13:54:55;;;;;;;30.55;15.88;;;;;;;;;;4998067;28;20076;-90
2022/10/13 13:57:21;;;;;;;32.15;16.27;;;;;;;;;;4998607;28;20022;-91
2022/10/13 13:59:47;;;;;;;29.23;16.27;;;;;;;;;;5007076;28;20080;-91
2022/10/13 14:02:14;;;;;;;30.63;16.45;;;;;;;;;;4985132;28;20038;-91
2022/10/13 14:04:41;;;;;;;31.38;15.02;;;;;;;;;;5019425;28;20458;-90
2022/10/13 14:07:07;;;;;;;25.95;15.95;;;;;;;;;;5003820;28;20486;-90
2022/10/13 14:09:33;;;;;;;32.92;17.77;;;;;;;;;;4990362;28;20970;-90
2022/10/13 14:11:59;;;;;;;37.30;17.13;;;;;;;;;;4990187;28;20045;-90
2022/10/13 14:14:25;;;;;;;29.40;16.88;;;;;;;;;;4987103;28;20451;-91
2022/10/13 14:16:52;;;;;;;26.70;16.20;;;;;;;;;;5005611;28;20470;-91
2022/10/13 14:19:18;;;;;;;32.40;16.38;;;;;;;;;;5000182;28;20030;-90
2022/10/13 14:21:44;;;;;;;28.05;15.25;;;;;;;;;;4987966;28;20496;-91
2022/10/13 14:24:11;;;;;;;35.75;16.23;;;;;;;;;;5000870;28;20093;-91
2022/10/13 14:26:37;;;;;;;37.80;17.25;;;;;;;;;;4989985;28;20091;-91
2022/10/13 14:29:03;;;;;;;32.08;16.17;;;;;;;;;;4988303;28;20121;-91